sensor_id;sensor_type;location;lat;lon;timestamp;P1;durP1;ratioP1;P2;durP2;ratioP2
27746;SDS011;15138;51.012;4.692;2024-03-17T00:02:18;11.20;;;6.15;;
27746;SDS011;15138;51.012;4.692;2024-03-17T00:04:46;9.13;;;5.50;;
27746;SDS011;15138;51.012;4.692;2024-03-17T00:07:14;10.32;;;5.32;;
27746;SDS011;15138;51.012;4.692;2024-03-17T00:09:41;9.63;;;5.45;;
27746;SDS011;15138;51.012;4.692;2024-03-17T00:12:08;11.95;;;5.80;;
27746;SDS011;15138;51.012;4.692;2024-03-17T00:14:36;12.45;;;5.65;;
27746;SDS011;15138;51.012;4.692;2024-03-17T00:17:04;10.55;;;5.07;;
27746;SDS011;15138;51.012;4.692;2024-03-17T00:19:31;9.23;;;4.60;;
27746;SDS011;15138;51.012;4.692;2024-03-17T00:21:58;12.43;;;5.45;;
27746;SDS011;15138;51.012;4.692;2024-03-17T00:24:27;9.52;;;4.93;;
27746;SDS011;15138;51.012;4.692;2024-03-17T00:27:00;11.07;;;4.70;;
27746;SDS011;15138;51.012;4.692;2024-03-17T00:29:27;9.02;;;4.90;;
27746;SDS011;15138;51.012;4.692;2024-03-17T00:31:54;9.88;;;5.30;;
27746;SDS011;15138;51.012;4.692;2024-03-17T00:34:22;11.52;;;5.93;;
27746;SDS011;15138;51.012;4.692;2024-03-17T00:36:48;8.75;;;5.75;;
27746;SDS011;15138;51.012;4.692;2024-03-17T00:39:16;12.02;;;6.20;;
27746;SDS011;15138;51.012;4.692;2024-03-17T00:41:44;9.10;;;5.15;;
27746;SDS011;15138;51.012;4.692;2024-03-17T00:44:12;14.82;;;4.95;;
27746;SDS011;15138;51.012;4.692;2024-03-17T00:46:38;11.45;;;5.75;;
27746;SDS011;15138;51.012;4.692;2024-03-17T00:49:07;11.23;;;4.28;;
27746;SDS011;15138;51.012;4.692;2024-03-17T00:51:35;7.43;;;4.13;;
27746;SDS011;15138;51.012;4.692;2024-03-17T00:54:03;8.77;;;4.47;;
27746;SDS011;15138;51.012;4.692;2024-03-17T00:56:29;9.10;;;5.25;;
27746;SDS011;15138;51.012;4.692;2024-03-17T00:58:58;7.68;;;4.45;;
27746;SDS011;15138;51.012;4.692;2024-03-17T01:01:25;7.47;;;3.72;;
27746;SDS011;15138;51.012;4.692;2024-03-17T01:03:52;6.60;;;4.35;;
27746;SDS011;15138;51.012;4.692;2024-03-17T01:06:20;7.85;;;4.57;;
27746;SDS011;15138;51.012;4.692;2024-03-17T01:08:48;10.07;;;5.50;;
27746;SDS011;15138;51.012;4.692;2024-03-17T01:11:14;8.50;;;4.25;;
27746;SDS011;15138;51.012;4.692;2024-03-17T01:13:44;8.50;;;4.28;;
27746;SDS011;15138;51.012;4.692;2024-03-17T01:16:13;9.27;;;4.60;;
27746;SDS011;15138;51.012;4.692;2024-03-17T01:18:41;7.80;;;4.30;;
27746;SDS011;15138;51.012;4.692;2024-03-17T01:21:10;11.02;;;5.00;;
27746;SDS011;15138;51.012;4.692;2024-03-17T01:23:37;10.52;;;5.50;;
27746;SDS011;15138;51.012;4.692;2024-03-17T01:26:04;10.05;;;5.00;;
27746;SDS011;15138;51.012;4.692;2024-03-17T01:28:31;7.03;;;4.35;;
27746;SDS011;15138;51.012;4.692;2024-03-17T01:30:58;8.13;;;4.18;;
27746;SDS011;15138;51.012;4.692;2024-03-17T01:33:26;8.32;;;4.10;;
27746;SDS011;15138;51.012;4.692;2024-03-17T01:35:53;9.45;;;4.65;;
27746;SDS011;15138;51.012;4.692;2024-03-17T01:38:20;6.22;;;3.97;;
27746;SDS011;15138;51.012;4.692;2024-03-17T01:40:47;8.40;;;4.43;;
27746;SDS011;15138;51.012;4.692;2024-03-17T01:43:14;7.15;;;4.07;;
27746;SDS011;15138;51.012;4.692;2024-03-17T01:45:41;10.60;;;4.65;;
27746;SDS011;15138;51.012;4.692;2024-03-17T01:48:10;6.68;;;3.72;;
27746;SDS011;15138;51.012;4.692;2024-03-17T01:50:41;7.53;;;3.90;;
27746;SDS011;15138;51.012;4.692;2024-03-17T01:53:09;6.18;;;3.65;;
27746;SDS011;15138;51.012;4.692;2024-03-17T01:55:38;7.07;;;4.20;;
27746;SDS011;15138;51.012;4.692;2024-03-17T01:58:06;6.70;;;4.55;;
27746;SDS011;15138;51.012;4.692;2024-03-17T02:00:34;7.25;;;4.18;;
27746;SDS011;15138;51.012;4.692;2024-03-17T02:03:01;8.00;;;4.30;;
27746;SDS011;15138;51.012;4.692;2024-03-17T02:05:29;12.32;;;6.50;;
27746;SDS011;15138;51.012;4.692;2024-03-17T02:07:57;14.95;;;7.28;;
27746;SDS011;15138;51.012;4.692;2024-03-17T02:10:24;10.60;;;5.85;;
27746;SDS011;15138;51.012;4.692;2024-03-17T02:12:54;9.30;;;4.63;;
27746;SDS011;15138;51.012;4.692;2024-03-17T02:15:21;8.18;;;4.95;;
27746;SDS011;15138;51.012;4.692;2024-03-17T02:17:48;7.53;;;4.25;;
27746;SDS011;15138;51.012;4.692;2024-03-17T02:20:15;9.00;;;4.60;;
27746;SDS011;15138;51.012;4.692;2024-03-17T02:22:44;9.48;;;4.40;;
27746;SDS011;15138;51.012;4.692;2024-03-17T02:25:12;6.57;;;4.07;;
27746;SDS011;15138;51.012;4.692;2024-03-17T02:27:38;10.95;;;4.82;;
27746;SDS011;15138;51.012;4.692;2024-03-17T02:30:06;8.57;;;4.78;;
27746;SDS011;15138;51.012;4.692;2024-03-17T02:32:34;12.00;;;5.03;;
27746;SDS011;15138;51.012;4.692;2024-03-17T02:35:02;10.80;;;5.35;;
27746;SDS011;15138;51.012;4.692;2024-03-17T02:37:30;8.60;;;5.05;;
27746;SDS011;15138;51.012;4.692;2024-03-17T02:39:58;7.95;;;4.47;;
27746;SDS011;15138;51.012;4.692;2024-03-17T02:42:26;10.35;;;5.07;;
27746;SDS011;15138;51.012;4.692;2024-03-17T02:44:53;7.13;;;4.15;;
27746;SDS011;15138;51.012;4.692;2024-03-17T02:47:21;8.85;;;4.88;;
27746;SDS011;15138;51.012;4.692;2024-03-17T02:49:49;9.48;;;5.28;;
27746;SDS011;15138;51.012;4.692;2024-03-17T02:52:17;9.32;;;4.63;;
27746;SDS011;15138;51.012;4.692;2024-03-17T02:54:45;7.78;;;4.00;;
27746;SDS011;15138;51.012;4.692;2024-03-17T02:57:13;9.20;;;4.55;;
27746;SDS011;15138;51.012;4.692;2024-03-17T02:59:41;7.75;;;4.43;;
27746;SDS011;15138;51.012;4.692;2024-03-17T03:02:08;8.60;;;4.63;;
27746;SDS011;15138;51.012;4.692;2024-03-17T03:04:36;8.32;;;4.15;;
27746;SDS011;15138;51.012;4.692;2024-03-17T03:07:03;6.90;;;4.30;;
27746;SDS011;15138;51.012;4.692;2024-03-17T03:09:31;7.10;;;4.53;;
27746;SDS011;15138;51.012;4.692;2024-03-17T03:11:58;6.80;;;3.83;;
27746;SDS011;15138;51.012;4.692;2024-03-17T03:14:28;9.60;;;4.47;;
27746;SDS011;15138;51.012;4.692;2024-03-17T03:16:56;5.53;;;3.75;;
27746;SDS011;15138;51.012;4.692;2024-03-17T03:19:23;6.13;;;3.97;;
27746;SDS011;15138;51.012;4.692;2024-03-17T03:21:51;6.95;;;3.88;;
27746;SDS011;15138;51.012;4.692;2024-03-17T03:24:18;8.85;;;4.20;;
27746;SDS011;15138;51.012;4.692;2024-03-17T03:26:46;7.38;;;4.05;;
27746;SDS011;15138;51.012;4.692;2024-03-17T03:29:13;7.25;;;3.70;;
27746;SDS011;15138;51.012;4.692;2024-03-17T03:31:43;9.65;;;5.13;;
27746;SDS011;15138;51.012;4.692;2024-03-17T03:34:10;10.48;;;5.10;;
27746;SDS011;15138;51.012;4.692;2024-03-17T03:36:38;7.35;;;4.30;;
27746;SDS011;15138;51.012;4.692;2024-03-17T03:39:07;10.18;;;5.18;;
27746;SDS011;15138;51.012;4.692;2024-03-17T03:41:36;10.40;;;5.57;;
27746;SDS011;15138;51.012;4.692;2024-03-17T03:44:03;12.68;;;6.00;;
27746;SDS011;15138;51.012;4.692;2024-03-17T03:46:31;11.43;;;6.13;;
27746;SDS011;15138;51.012;4.692;2024-03-17T03:49:00;12.10;;;6.22;;
27746;SDS011;15138;51.012;4.692;2024-03-17T03:51:27;12.38;;;6.60;;
27746;SDS011;15138;51.012;4.692;2024-03-17T03:53:55;13.55;;;6.65;;
27746;SDS011;15138;51.012;4.692;2024-03-17T03:56:22;10.18;;;5.88;;
27746;SDS011;15138;51.012;4.692;2024-03-17T03:58:51;12.38;;;5.93;;
27746;SDS011;15138;51.012;4.692;2024-03-17T04:01:19;14.13;;;6.45;;
27746;SDS011;15138;51.012;4.692;2024-03-17T04:03:47;11.55;;;5.97;;
27746;SDS011;15138;51.012;4.692;2024-03-17T04:06:16;12.63;;;6.28;;
27746;SDS011;15138;51.012;4.692;2024-03-17T04:08:44;10.07;;;5.95;;
27746;SDS011;15138;51.012;4.692;2024-03-17T04:11:11;9.57;;;5.80;;
27746;SDS011;15138;51.012;4.692;2024-03-17T04:13:39;11.48;;;5.85;;
27746;SDS011;15138;51.012;4.692;2024-03-17T04:16:07;13.45;;;6.57;;
27746;SDS011;15138;51.012;4.692;2024-03-17T04:18:35;9.65;;;5.50;;
27746;SDS011;15138;51.012;4.692;2024-03-17T04:21:05;10.18;;;5.88;;
27746;SDS011;15138;51.012;4.692;2024-03-17T04:23:34;11.65;;;5.32;;
27746;SDS011;15138;51.012;4.692;2024-03-17T04:26:03;8.05;;;4.97;;
27746;SDS011;15138;51.012;4.692;2024-03-17T04:28:32;8.55;;;4.80;;
27746;SDS011;15138;51.012;4.692;2024-03-17T04:31:04;8.57;;;4.82;;
27746;SDS011;15138;51.012;4.692;2024-03-17T04:33:32;7.97;;;4.43;;
27746;SDS011;15138;51.012;4.692;2024-03-17T04:36:00;9.43;;;4.93;;
27746;SDS011;15138;51.012;4.692;2024-03-17T04:38:28;10.50;;;5.30;;
27746;SDS011;15138;51.012;4.692;2024-03-17T04:40:57;6.97;;;4.22;;
27746;SDS011;15138;51.012;4.692;2024-03-17T04:43:30;6.63;;;4.22;;
27746;SDS011;15138;51.012;4.692;2024-03-17T04:46:02;7.47;;;4.20;;
27746;SDS011;15138;51.012;4.692;2024-03-17T04:48:31;8.95;;;4.07;;
27746;SDS011;15138;51.012;4.692;2024-03-17T04:50:58;8.05;;;3.95;;
27746;SDS011;15138;51.012;4.692;2024-03-17T04:53:26;9.45;;;5.20;;
27746;SDS011;15138;51.012;4.692;2024-03-17T04:56:00;7.75;;;4.10;;
27746;SDS011;15138;51.012;4.692;2024-03-17T04:58:28;8.98;;;4.80;;
27746;SDS011;15138;51.012;4.692;2024-03-17T05:00:55;12.45;;;6.03;;
27746;SDS011;15138;51.012;4.692;2024-03-17T05:03:23;10.30;;;5.20;;
27746;SDS011;15138;51.012;4.692;2024-03-17T05:05:57;9.93;;;5.13;;
27746;SDS011;15138;51.012;4.692;2024-03-17T05:08:26;7.88;;;4.40;;
27746;SDS011;15138;51.012;4.692;2024-03-17T05:10:57;11.93;;;6.15;;
27746;SDS011;15138;51.012;4.692;2024-03-17T05:13:26;13.40;;;6.40;;
27746;SDS011;15138;51.012;4.692;2024-03-17T05:15:54;14.05;;;6.18;;
27746;SDS011;15138;51.012;4.692;2024-03-17T05:18:22;21.77;;;8.70;;
27746;SDS011;15138;51.012;4.692;2024-03-17T05:20:57;12.88;;;4.97;;
27746;SDS011;15138;51.012;4.692;2024-03-17T05:23:26;12.32;;;6.10;;
27746;SDS011;15138;51.012;4.692;2024-03-17T05:25:54;14.02;;;6.93;;
27746;SDS011;15138;51.012;4.692;2024-03-17T05:28:22;15.75;;;7.25;;
27746;SDS011;15138;51.012;4.692;2024-03-17T05:30:50;16.20;;;7.32;;
27746;SDS011;15138;51.012;4.692;2024-03-17T05:33:18;13.93;;;6.35;;
27746;SDS011;15138;51.012;4.692;2024-03-17T05:35:50;11.38;;;6.10;;
27746;SDS011;15138;51.012;4.692;2024-03-17T05:38:18;12.88;;;6.60;;
27746;SDS011;15138;51.012;4.692;2024-03-17T05:40:53;10.43;;;5.60;;
27746;SDS011;15138;51.012;4.692;2024-03-17T05:43:21;13.10;;;6.60;;
27746;SDS011;15138;51.012;4.692;2024-03-17T05:45:50;9.90;;;5.38;;
27746;SDS011;15138;51.012;4.692;2024-03-17T05:48:18;9.20;;;5.32;;
27746;SDS011;15138;51.012;4.692;2024-03-17T05:50:45;10.20;;;5.57;;
27746;SDS011;15138;51.012;4.692;2024-03-17T05:53:13;9.35;;;6.00;;
27746;SDS011;15138;51.012;4.692;2024-03-17T05:55:41;15.23;;;6.68;;
27746;SDS011;15138;51.012;4.692;2024-03-17T05:58:08;10.60;;;5.50;;
27746;SDS011;15138;51.012;4.692;2024-03-17T06:00:37;12.07;;;6.20;;
27746;SDS011;15138;51.012;4.692;2024-03-17T06:03:06;11.20;;;6.38;;
27746;SDS011;15138;51.012;4.692;2024-03-17T06:05:33;14.05;;;6.13;;
27746;SDS011;15138;51.012;4.692;2024-03-17T06:08:01;12.30;;;6.70;;
27746;SDS011;15138;51.012;4.692;2024-03-17T06:10:30;10.38;;;6.65;;
27746;SDS011;15138;51.012;4.692;2024-03-17T06:12:57;11.82;;;6.28;;
27746;SDS011;15138;51.012;4.692;2024-03-17T06:15:25;11.35;;;6.43;;
27746;SDS011;15138;51.012;4.692;2024-03-17T06:17:53;13.90;;;6.95;;
27746;SDS011;15138;51.012;4.692;2024-03-17T06:20:22;12.88;;;6.03;;
27746;SDS011;15138;51.012;4.692;2024-03-17T06:22:52;12.60;;;6.10;;
27746;SDS011;15138;51.012;4.692;2024-03-17T06:25:19;10.40;;;6.20;;
27746;SDS011;15138;51.012;4.692;2024-03-17T06:27:49;14.93;;;6.72;;
27746;SDS011;15138;51.012;4.692;2024-03-17T06:30:16;13.05;;;7.32;;
27746;SDS011;15138;51.012;4.692;2024-03-17T06:32:44;13.75;;;7.05;;
27746;SDS011;15138;51.012;4.692;2024-03-17T06:35:12;16.70;;;7.35;;
27746;SDS011;15138;51.012;4.692;2024-03-17T06:37:42;13.77;;;7.57;;
27746;SDS011;15138;51.012;4.692;2024-03-17T06:40:10;12.52;;;7.15;;
27746;SDS011;15138;51.012;4.692;2024-03-17T06:42:39;13.55;;;7.20;;
27746;SDS011;15138;51.012;4.692;2024-03-17T06:45:07;14.68;;;7.57;;
27746;SDS011;15138;51.012;4.692;2024-03-17T06:47:35;15.35;;;7.50;;
27746;SDS011;15138;51.012;4.692;2024-03-17T06:50:02;11.43;;;6.65;;
27746;SDS011;15138;51.012;4.692;2024-03-17T06:52:30;15.05;;;7.60;;
27746;SDS011;15138;51.012;4.692;2024-03-17T06:54:58;14.10;;;7.93;;
27746;SDS011;15138;51.012;4.692;2024-03-17T06:57:26;14.20;;;7.38;;
27746;SDS011;15138;51.012;4.692;2024-03-17T06:59:54;12.80;;;7.10;;
27746;SDS011;15138;51.012;4.692;2024-03-17T07:02:21;14.65;;;7.25;;
27746;SDS011;15138;51.012;4.692;2024-03-17T07:04:48;13.85;;;7.88;;
27746;SDS011;15138;51.012;4.692;2024-03-17T07:07:16;12.63;;;7.43;;
27746;SDS011;15138;51.012;4.692;2024-03-17T07:09:43;13.80;;;7.45;;
27746;SDS011;15138;51.012;4.692;2024-03-17T07:12:12;13.05;;;8.02;;
27746;SDS011;15138;51.012;4.692;2024-03-17T07:14:40;13.48;;;7.43;;
27746;SDS011;15138;51.012;4.692;2024-03-17T07:17:07;14.13;;;7.53;;
27746;SDS011;15138;51.012;4.692;2024-03-17T07:19:35;12.50;;;7.22;;
27746;SDS011;15138;51.012;4.692;2024-03-17T07:22:02;12.27;;;6.93;;
27746;SDS011;15138;51.012;4.692;2024-03-17T07:24:30;20.45;;;8.73;;
27746;SDS011;15138;51.012;4.692;2024-03-17T07:26:58;16.10;;;7.65;;
27746;SDS011;15138;51.012;4.692;2024-03-17T07:29:27;15.20;;;8.00;;
27746;SDS011;15138;51.012;4.692;2024-03-17T07:31:55;11.90;;;6.97;;
27746;SDS011;15138;51.012;4.692;2024-03-17T07:34:22;14.88;;;7.43;;
27746;SDS011;15138;51.012;4.692;2024-03-17T07:36:50;14.55;;;7.90;;
27746;SDS011;15138;51.012;4.692;2024-03-17T07:39:18;13.95;;;7.32;;
27746;SDS011;15138;51.012;4.692;2024-03-17T07:41:45;15.43;;;7.10;;
27746;SDS011;15138;51.012;4.692;2024-03-17T07:44:13;14.20;;;6.97;;
27746;SDS011;15138;51.012;4.692;2024-03-17T07:46:42;13.50;;;7.05;;
27746;SDS011;15138;51.012;4.692;2024-03-17T07:49:09;13.55;;;6.60;;
27746;SDS011;15138;51.012;4.692;2024-03-17T07:51:37;10.18;;;6.57;;
27746;SDS011;15138;51.012;4.692;2024-03-17T07:54:05;15.18;;;6.72;;
27746;SDS011;15138;51.012;4.692;2024-03-17T07:56:32;12.40;;;7.10;;
27746;SDS011;15138;51.012;4.692;2024-03-17T07:59:00;12.43;;;6.90;;
27746;SDS011;15138;51.012;4.692;2024-03-17T08:01:30;12.35;;;6.47;;
27746;SDS011;15138;51.012;4.692;2024-03-17T08:03:59;16.00;;;7.15;;
27746;SDS011;15138;51.012;4.692;2024-03-17T08:06:27;14.45;;;7.88;;
27746;SDS011;15138;51.012;4.692;2024-03-17T08:08:57;14.43;;;6.55;;
27746;SDS011;15138;51.012;4.692;2024-03-17T08:11:24;13.73;;;7.22;;
27746;SDS011;15138;51.012;4.692;2024-03-17T08:13:52;11.98;;;6.97;;
27746;SDS011;15138;51.012;4.692;2024-03-17T08:16:19;13.77;;;7.20;;
27746;SDS011;15138;51.012;4.692;2024-03-17T08:18:47;14.95;;;7.28;;
27746;SDS011;15138;51.012;4.692;2024-03-17T08:21:16;14.90;;;6.68;;
27746;SDS011;15138;51.012;4.692;2024-03-17T08:23:43;14.88;;;8.00;;
27746;SDS011;15138;51.012;4.692;2024-03-17T08:26:12;13.85;;;7.18;;
27746;SDS011;15138;51.012;4.692;2024-03-17T08:28:39;13.27;;;7.05;;
27746;SDS011;15138;51.012;4.692;2024-03-17T08:31:07;14.15;;;7.15;;
27746;SDS011;15138;51.012;4.692;2024-03-17T08:33:34;15.82;;;7.40;;
27746;SDS011;15138;51.012;4.692;2024-03-17T08:36:02;12.88;;;6.97;;
27746;SDS011;15138;51.012;4.692;2024-03-17T08:38:32;11.77;;;6.28;;
27746;SDS011;15138;51.012;4.692;2024-03-17T08:41:02;15.85;;;6.18;;
27746;SDS011;15138;51.012;4.692;2024-03-17T08:43:29;9.27;;;6.38;;
27746;SDS011;15138;51.012;4.692;2024-03-17T08:45:57;9.05;;;6.45;;
27746;SDS011;15138;51.012;4.692;2024-03-17T08:48:26;12.95;;;6.47;;
27746;SDS011;15138;51.012;4.692;2024-03-17T08:50:56;10.55;;;6.38;;
27746;SDS011;15138;51.012;4.692;2024-03-17T08:53:23;13.30;;;6.38;;
27746;SDS011;15138;51.012;4.692;2024-03-17T08:55:52;11.43;;;5.50;;
27746;SDS011;15138;51.012;4.692;2024-03-17T08:58:20;10.48;;;5.15;;
27746;SDS011;15138;51.012;4.692;2024-03-17T09:00:47;10.30;;;5.53;;
27746;SDS011;15138;51.012;4.692;2024-03-17T09:03:15;13.32;;;5.15;;
27746;SDS011;15138;51.012;4.692;2024-03-17T09:05:43;10.55;;;5.75;;
27746;SDS011;15138;51.012;4.692;2024-03-17T09:08:14;9.15;;;4.90;;
27746;SDS011;15138;51.012;4.692;2024-03-17T09:10:42;8.27;;;4.97;;
27746;SDS011;15138;51.012;4.692;2024-03-17T09:13:12;9.43;;;5.25;;
27746;SDS011;15138;51.012;4.692;2024-03-17T09:15:41;13.50;;;6.00;;
27746;SDS011;15138;51.012;4.692;2024-03-17T09:18:08;13.20;;;5.40;;
27746;SDS011;15138;51.012;4.692;2024-03-17T09:20:36;11.57;;;5.65;;
27746;SDS011;15138;51.012;4.692;2024-03-17T09:23:03;9.77;;;5.13;;
27746;SDS011;15138;51.012;4.692;2024-03-17T09:25:31;10.57;;;5.28;;
27746;SDS011;15138;51.012;4.692;2024-03-17T09:27:58;8.20;;;4.95;;
27746;SDS011;15138;51.012;4.692;2024-03-17T09:30:27;9.32;;;5.00;;
27746;SDS011;15138;51.012;4.692;2024-03-17T09:32:54;10.48;;;5.13;;
27746;SDS011;15138;51.012;4.692;2024-03-17T09:35:22;8.32;;;4.57;;
27746;SDS011;15138;51.012;4.692;2024-03-17T09:37:50;7.88;;;4.70;;
27746;SDS011;15138;51.012;4.692;2024-03-17T09:40:17;9.85;;;4.53;;
27746;SDS011;15138;51.012;4.692;2024-03-17T09:42:45;9.77;;;4.65;;
27746;SDS011;15138;51.012;4.692;2024-03-17T09:45:12;12.75;;;5.03;;
27746;SDS011;15138;51.012;4.692;2024-03-17T09:47:43;8.98;;;4.25;;
27746;SDS011;15138;51.012;4.692;2024-03-17T09:50:12;8.70;;;4.40;;
27746;SDS011;15138;51.012;4.692;2024-03-17T09:52:42;10.13;;;4.47;;
27746;SDS011;15138;51.012;4.692;2024-03-17T09:55:15;6.60;;;3.53;;
27746;SDS011;15138;51.012;4.692;2024-03-17T09:57:43;10.07;;;3.67;;
27746;SDS011;15138;51.012;4.692;2024-03-17T10:00:13;12.30;;;4.32;;
27746;SDS011;15138;51.012;4.692;2024-03-17T10:02:42;37.50;;;11.57;;
27746;SDS011;15138;51.012;4.692;2024-03-17T10:05:21;8.77;;;4.28;;
27746;SDS011;15138;51.012;4.692;2024-03-17T10:07:48;10.48;;;3.78;;
27746;SDS011;15138;51.012;4.692;2024-03-17T10:10:17;8.55;;;3.65;;
27746;SDS011;15138;51.012;4.692;2024-03-17T10:12:45;8.90;;;3.38;;
27746;SDS011;15138;51.012;4.692;2024-03-17T10:15:16;9.82;;;3.20;;
27746;SDS011;15138;51.012;4.692;2024-03-17T10:17:44;8.50;;;4.00;;
27746;SDS011;15138;51.012;4.692;2024-03-17T10:20:11;8.57;;;3.65;;
27746;SDS011;15138;51.012;4.692;2024-03-17T10:22:49;6.35;;;3.20;;
27746;SDS011;15138;51.012;4.692;2024-03-17T10:25:29;7.90;;;3.25;;
27746;SDS011;15138;51.012;4.692;2024-03-17T10:27:57;6.82;;;3.08;;
27746;SDS011;15138;51.012;4.692;2024-03-17T10:30:24;8.75;;;3.53;;
27746;SDS011;15138;51.012;4.692;2024-03-17T10:32:53;8.68;;;3.95;;
27746;SDS011;15138;51.012;4.692;2024-03-17T10:35:29;9.57;;;3.67;;
27746;SDS011;15138;51.012;4.692;2024-03-17T10:37:59;12.20;;;3.83;;
27746;SDS011;15138;51.012;4.692;2024-03-17T10:40:28;12.02;;;3.33;;
27746;SDS011;15138;51.012;4.692;2024-03-17T10:42:57;8.68;;;3.78;;
27746;SDS011;15138;51.012;4.692;2024-03-17T10:45:25;7.57;;;3.33;;
27746;SDS011;15138;51.012;4.692;2024-03-17T10:47:56;9.90;;;3.88;;
27746;SDS011;15138;51.012;4.692;2024-03-17T10:50:26;8.40;;;3.17;;
27746;SDS011;15138;51.012;4.692;2024-03-17T10:53:01;10.73;;;3.50;;
27746;SDS011;15138;51.012;4.692;2024-03-17T10:55:31;5.70;;;3.22;;
27746;SDS011;15138;51.012;4.692;2024-03-17T10:58:05;8.68;;;3.03;;
27746;SDS011;15138;51.012;4.692;2024-03-17T11:00:49;10.63;;;3.35;;
27746;SDS011;15138;51.012;4.692;2024-03-17T11:03:18;8.95;;;3.53;;
27746;SDS011;15138;51.012;4.692;2024-03-17T11:05:46;6.40;;;3.30;;
27746;SDS011;15138;51.012;4.692;2024-03-17T11:08:16;6.93;;;3.17;;
27746;SDS011;15138;51.012;4.692;2024-03-17T11:10:53;8.27;;;3.17;;
27746;SDS011;15138;51.012;4.692;2024-03-17T11:13:24;4.10;;;2.90;;
27746;SDS011;15138;51.012;4.692;2024-03-17T11:15:52;11.20;;;3.10;;
27746;SDS011;15138;51.012;4.692;2024-03-17T11:18:28;8.93;;;3.20;;
27746;SDS011;15138;51.012;4.692;2024-03-17T11:23:30;7.28;;;3.13;;
27746;SDS011;15138;51.012;4.692;2024-03-17T11:25:57;9.98;;;3.28;;
27746;SDS011;15138;51.012;4.692;2024-03-17T11:28:45;8.63;;;3.22;;
27746;SDS011;15138;51.012;4.692;2024-03-17T11:37:10;8.25;;;3.22;;
27746;SDS011;15138;51.012;4.692;2024-03-17T11:43:01;6.88;;;3.00;;
27746;SDS011;15138;51.012;4.692;2024-03-17T11:45:31;6.50;;;2.92;;
27746;SDS011;15138;51.012;4.692;2024-03-17T11:47:57;6.57;;;3.00;;
27746;SDS011;15138;51.012;4.692;2024-03-17T11:50:24;10.25;;;3.40;;
27746;SDS011;15138;51.012;4.692;2024-03-17T11:53:02;7.70;;;2.90;;
27746;SDS011;15138;51.012;4.692;2024-03-17T11:55:29;7.60;;;2.97;;
27746;SDS011;15138;51.012;4.692;2024-03-17T11:57:56;5.03;;;2.67;;
27746;SDS011;15138;51.012;4.692;2024-03-17T12:00:24;5.10;;;2.60;;
27746;SDS011;15138;51.012;4.692;2024-03-17T12:02:51;5.25;;;2.70;;
27746;SDS011;15138;51.012;4.692;2024-03-17T12:05:18;4.78;;;2.60;;
27746;SDS011;15138;51.012;4.692;2024-03-17T12:07:46;8.40;;;3.72;;
27746;SDS011;15138;51.012;4.692;2024-03-17T12:10:13;8.55;;;2.92;;
27746;SDS011;15138;51.012;4.692;2024-03-17T12:12:39;7.20;;;2.50;;
27746;SDS011;15138;51.012;4.692;2024-03-17T12:15:17;9.63;;;3.28;;
27746;SDS011;15138;51.012;4.692;2024-03-17T12:17:46;8.40;;;3.25;;
27746;SDS011;15138;51.012;4.692;2024-03-17T12:20:18;7.68;;;3.20;;
27746;SDS011;15138;51.012;4.692;2024-03-17T12:22:46;7.78;;;2.45;;
27746;SDS011;15138;51.012;4.692;2024-03-17T12:25:16;9.23;;;2.80;;
27746;SDS011;15138;51.012;4.692;2024-03-17T12:27:43;7.97;;;2.22;;
27746;SDS011;15138;51.012;4.692;2024-03-17T12:30:12;10.25;;;2.70;;
27746;SDS011;15138;51.012;4.692;2024-03-17T12:32:38;5.70;;;2.30;;
27746;SDS011;15138;51.012;4.692;2024-03-17T12:35:12;9.75;;;2.47;;
27746;SDS011;15138;51.012;4.692;2024-03-17T12:37:43;7.82;;;2.00;;
27746;SDS011;15138;51.012;4.692;2024-03-17T12:40:17;6.45;;;2.15;;
27746;SDS011;15138;51.012;4.692;2024-03-17T12:42:47;6.35;;;2.00;;
27746;SDS011;15138;51.012;4.692;2024-03-17T12:45:18;6.10;;;2.05;;
27746;SDS011;15138;51.012;4.692;2024-03-17T12:47:46;6.70;;;2.20;;
27746;SDS011;15138;51.012;4.692;2024-03-17T12:50:14;6.95;;;2.78;;
27746;SDS011;15138;51.012;4.692;2024-03-17T12:52:51;7.45;;;2.00;;
27746;SDS011;15138;51.012;4.692;2024-03-17T12:55:18;4.85;;;2.10;;
27746;SDS011;15138;51.012;4.692;2024-03-17T13:00:58;7.90;;;2.30;;
27746;SDS011;15138;51.012;4.692;2024-03-17T13:03:26;7.53;;;3.03;;
27746;SDS011;15138;51.012;4.692;2024-03-17T13:05:58;9.85;;;2.30;;
27746;SDS011;15138;51.012;4.692;2024-03-17T13:08:25;8.00;;;2.28;;
27746;SDS011;15138;51.012;4.692;2024-03-17T13:10:52;4.53;;;2.10;;
27746;SDS011;15138;51.012;4.692;2024-03-17T13:13:20;8.38;;;2.60;;
27746;SDS011;15138;51.012;4.692;2024-03-17T13:15:47;7.45;;;2.63;;
27746;SDS011;15138;51.012;4.692;2024-03-17T13:18:16;8.13;;;2.72;;
27746;SDS011;15138;51.012;4.692;2024-03-17T13:20:45;14.05;;;3.42;;
27746;SDS011;15138;51.012;4.692;2024-03-17T13:23:16;9.57;;;2.60;;
27746;SDS011;15138;51.012;4.692;2024-03-17T13:25:43;6.65;;;2.58;;
27746;SDS011;15138;51.012;4.692;2024-03-17T13:28:11;4.88;;;2.30;;
27746;SDS011;15138;51.012;4.692;2024-03-17T13:30:38;4.15;;;1.83;;
27746;SDS011;15138;51.012;4.692;2024-03-17T13:33:06;6.38;;;2.30;;
27746;SDS011;15138;51.012;4.692;2024-03-17T13:35:35;7.78;;;2.35;;
27746;SDS011;15138;51.012;4.692;2024-03-17T13:38:04;4.68;;;2.10;;
27746;SDS011;15138;51.012;4.692;2024-03-17T13:40:34;8.50;;;2.38;;
27746;SDS011;15138;51.012;4.692;2024-03-17T13:43:03;3.95;;;1.88;;
27746;SDS011;15138;51.012;4.692;2024-03-17T13:45:31;7.50;;;2.50;;
27746;SDS011;15138;51.012;4.692;2024-03-17T13:48:04;3.75;;;1.90;;
27746;SDS011;15138;51.012;4.692;2024-03-17T13:50:34;4.55;;;2.08;;
27746;SDS011;15138;51.012;4.692;2024-03-17T13:53:01;6.72;;;2.00;;
27746;SDS011;15138;51.012;4.692;2024-03-17T13:55:29;4.38;;;1.77;;
27746;SDS011;15138;51.012;4.692;2024-03-17T13:57:58;6.00;;;2.30;;
27746;SDS011;15138;51.012;4.692;2024-03-17T14:00:26;4.63;;;2.20;;
27746;SDS011;15138;51.012;4.692;2024-03-17T14:02:55;4.63;;;2.13;;
27746;SDS011;15138;51.012;4.692;2024-03-17T14:05:22;5.18;;;1.90;;
27746;SDS011;15138;51.012;4.692;2024-03-17T14:07:51;7.90;;;2.40;;
27746;SDS011;15138;51.012;4.692;2024-03-17T14:10:19;4.82;;;1.90;;
27746;SDS011;15138;51.012;4.692;2024-03-17T14:12:47;5.15;;;1.83;;
27746;SDS011;15138;51.012;4.692;2024-03-17T14:15:16;5.70;;;2.28;;
27746;SDS011;15138;51.012;4.692;2024-03-17T14:17:44;6.00;;;1.95;;
27746;SDS011;15138;51.012;4.692;2024-03-17T14:20:12;4.88;;;1.77;;
27746;SDS011;15138;51.012;4.692;2024-03-17T14:22:43;3.70;;;1.60;;
27746;SDS011;15138;51.012;4.692;2024-03-17T14:25:14;5.68;;;2.10;;
27746;SDS011;15138;51.012;4.692;2024-03-17T14:27:43;7.25;;;2.38;;
27746;SDS011;15138;51.012;4.692;2024-03-17T14:30:11;5.30;;;1.98;;
27746;SDS011;15138;51.012;4.692;2024-03-17T14:32:43;5.22;;;1.63;;
27746;SDS011;15138;51.012;4.692;2024-03-17T14:35:11;3.63;;;1.88;;
27746;SDS011;15138;51.012;4.692;2024-03-17T14:37:40;4.10;;;1.40;;
27746;SDS011;15138;51.012;4.692;2024-03-17T14:40:08;6.68;;;2.08;;
27746;SDS011;15138;51.012;4.692;2024-03-17T14:42:42;5.22;;;1.73;;
27746;SDS011;15138;51.012;4.692;2024-03-17T14:45:10;5.70;;;1.88;;
27746;SDS011;15138;51.012;4.692;2024-03-17T14:47:39;3.35;;;1.70;;
27746;SDS011;15138;51.012;4.692;2024-03-17T14:50:06;3.75;;;1.77;;
27746;SDS011;15138;51.012;4.692;2024-03-17T14:52:34;4.03;;;1.38;;
27746;SDS011;15138;51.012;4.692;2024-03-17T14:55:02;3.50;;;1.40;;
27746;SDS011;15138;51.012;4.692;2024-03-17T14:57:29;6.15;;;1.70;;
27746;SDS011;15138;51.012;4.692;2024-03-17T14:59:57;4.85;;;1.77;;
27746;SDS011;15138;51.012;4.692;2024-03-17T15:02:26;4.55;;;1.55;;
27746;SDS011;15138;51.012;4.692;2024-03-17T15:04:55;5.05;;;1.58;;
27746;SDS011;15138;51.012;4.692;2024-03-17T15:07:22;5.78;;;1.70;;